sensor_id;sensor_type;location;lat;lon;timestamp;P1;durP1;ratioP1;P2;durP2;ratioP2
51382;SDS011;37475;43.358;1.248;2023-11-21T00:00:19;11.02;;;1.90;;
51382;SDS011;37475;43.358;1.248;2023-11-21T00:02:45;16.88;;;1.80;;
51382;SDS011;37475;43.358;1.248;2023-11-21T00:05:11;12.93;;;1.90;;
51382;SDS011;37475;43.358;1.248;2023-11-21T00:07:42;10.60;;;2.00;;
51382;SDS011;37475;43.358;1.248;2023-11-21T00:10:09;8.60;;;1.45;;
51382;SDS011;37475;43.358;1.248;2023-11-21T00:12:35;8.45;;;1.42;;
51382;SDS011;37475;43.358;1.248;2023-11-21T00:15:02;12.27;;;1.30;;
51382;SDS011;37475;43.358;1.248;2023-11-21T00:17:35;8.25;;;1.35;;
51382;SDS011;37475;43.358;1.248;2023-11-21T00:20:02;6.70;;;1.20;;
51382;SDS011;37475;43.358;1.248;2023-11-21T00:22:31;7.60;;;1.40;;
51382;SDS011;37475;43.358;1.248;2023-11-21T00:25:01;11.35;;;2.33;;
51382;SDS011;37475;43.358;1.248;2023-11-21T00:27:29;12.52;;;1.60;;
51382;SDS011;37475;43.358;1.248;2023-11-21T00:29:55;6.13;;;1.27;;
51382;SDS011;37475;43.358;1.248;2023-11-21T00:32:21;16.23;;;1.85;;
51382;SDS011;37475;43.358;1.248;2023-11-21T00:34:46;4.13;;;0.93;;
51382;SDS011;37475;43.358;1.248;2023-11-21T00:37:12;11.75;;;1.65;;
51382;SDS011;37475;43.358;1.248;2023-11-21T00:39:39;13.07;;;1.30;;
51382;SDS011;37475;43.358;1.248;2023-11-21T00:42:05;6.85;;;1.42;;
51382;SDS011;37475;43.358;1.248;2023-11-21T00:44:31;9.10;;;1.50;;
51382;SDS011;37475;43.358;1.248;2023-11-21T00:46:57;12.57;;;1.73;;
51382;SDS011;37475;43.358;1.248;2023-11-21T00:49:22;5.50;;;1.35;;
51382;SDS011;37475;43.358;1.248;2023-11-21T00:51:48;10.27;;;1.70;;
51382;SDS011;37475;43.358;1.248;2023-11-21T00:54:14;7.10;;;1.63;;
51382;SDS011;37475;43.358;1.248;2023-11-21T00:56:42;3.17;;;0.85;;
51382;SDS011;37475;43.358;1.248;2023-11-21T00:59:08;9.23;;;1.45;;
51382;SDS011;37475;43.358;1.248;2023-11-21T01:01:33;6.78;;;1.45;;
51382;SDS011;37475;43.358;1.248;2023-11-21T01:03:59;8.27;;;1.40;;
51382;SDS011;37475;43.358;1.248;2023-11-21T01:06:25;12.48;;;1.63;;
51382;SDS011;37475;43.358;1.248;2023-11-21T01:08:51;14.25;;;2.25;;
51382;SDS011;37475;43.358;1.248;2023-11-21T01:11:17;9.55;;;1.63;;
51382;SDS011;37475;43.358;1.248;2023-11-21T01:13:43;10.98;;;1.85;;
51382;SDS011;37475;43.358;1.248;2023-11-21T01:16:09;8.90;;;1.52;;
51382;SDS011;37475;43.358;1.248;2023-11-21T01:18:36;9.13;;;1.30;;
51382;SDS011;37475;43.358;1.248;2023-11-21T01:21:02;11.55;;;1.33;;
51382;SDS011;37475;43.358;1.248;2023-11-21T01:23:28;7.22;;;1.73;;
51382;SDS011;37475;43.358;1.248;2023-11-21T01:25:55;9.90;;;1.42;;
51382;SDS011;37475;43.358;1.248;2023-11-21T01:28:22;6.95;;;1.30;;
51382;SDS011;37475;43.358;1.248;2023-11-21T01:30:48;6.75;;;1.17;;
51382;SDS011;37475;43.358;1.248;2023-11-21T01:33:14;8.60;;;1.33;;
51382;SDS011;37475;43.358;1.248;2023-11-21T01:35:43;6.78;;;1.33;;
51382;SDS011;37475;43.358;1.248;2023-11-21T01:38:11;13.40;;;1.73;;
51382;SDS011;37475;43.358;1.248;2023-11-21T01:40:37;6.43;;;1.15;;
51382;SDS011;37475;43.358;1.248;2023-11-21T01:43:03;7.28;;;1.15;;
51382;SDS011;37475;43.358;1.248;2023-11-21T01:45:29;7.63;;;1.50;;
51382;SDS011;37475;43.358;1.248;2023-11-21T01:47:58;11.32;;;1.27;;
51382;SDS011;37475;43.358;1.248;2023-11-21T01:50:25;7.68;;;1.55;;
51382;SDS011;37475;43.358;1.248;2023-11-21T01:52:52;7.10;;;1.33;;
51382;SDS011;37475;43.358;1.248;2023-11-21T01:55:19;5.03;;;1.52;;
51382;SDS011;37475;43.358;1.248;2023-11-21T01:57:45;6.47;;;1.05;;
51382;SDS011;37475;43.358;1.248;2023-11-21T02:00:11;4.45;;;1.00;;
51382;SDS011;37475;43.358;1.248;2023-11-21T02:02:47;8.00;;;1.83;;
51382;SDS011;37475;43.358;1.248;2023-11-21T02:05:18;7.67;;;1.63;;
51382;SDS011;37475;43.358;1.248;2023-11-21T02:07:46;10.95;;;1.65;;
51382;SDS011;37475;43.358;1.248;2023-11-21T02:10:17;5.20;;;0.90;;
51382;SDS011;37475;43.358;1.248;2023-11-21T02:12:47;6.55;;;1.10;;
51382;SDS011;37475;43.358;1.248;2023-11-21T02:15:17;9.05;;;1.58;;
51382;SDS011;37475;43.358;1.248;2023-11-21T02:17:48;5.45;;;1.00;;
51382;SDS011;37475;43.358;1.248;2023-11-21T02:20:19;4.00;;;1.10;;
51382;SDS011;37475;43.358;1.248;2023-11-21T02:25:25;5.65;;;0.93;;
51382;SDS011;37475;43.358;1.248;2023-11-21T02:27:53;7.38;;;1.20;;
51382;SDS011;37475;43.358;1.248;2023-11-21T02:30:20;3.13;;;0.77;;
51382;SDS011;37475;43.358;1.248;2023-11-21T02:32:47;8.52;;;1.10;;
51382;SDS011;37475;43.358;1.248;2023-11-21T02:35:13;9.07;;;1.40;;
51382;SDS011;37475;43.358;1.248;2023-11-21T02:37:40;6.32;;;0.75;;
51382;SDS011;37475;43.358;1.248;2023-11-21T02:40:10;5.07;;;0.85;;
51382;SDS011;37475;43.358;1.248;2023-11-21T02:42:37;5.93;;;1.67;;
51382;SDS011;37475;43.358;1.248;2023-11-21T02:45:06;6.85;;;0.80;;
51382;SDS011;37475;43.358;1.248;2023-11-21T02:47:33;4.82;;;0.73;;
51382;SDS011;37475;43.358;1.248;2023-11-21T02:49:59;5.18;;;0.93;;
51382;SDS011;37475;43.358;1.248;2023-11-21T02:52:25;5.10;;;1.00;;
51382;SDS011;37475;43.358;1.248;2023-11-21T02:54:51;9.70;;;1.25;;
51382;SDS011;37475;43.358;1.248;2023-11-21T02:57:17;9.02;;;1.13;;
51382;SDS011;37475;43.358;1.248;2023-11-21T02:59:43;11.00;;;1.23;;
51382;SDS011;37475;43.358;1.248;2023-11-21T03:02:09;3.78;;;0.70;;
51382;SDS011;37475;43.358;1.248;2023-11-21T03:04:35;8.90;;;1.10;;
51382;SDS011;37475;43.358;1.248;2023-11-21T03:07:01;8.73;;;1.08;;
51382;SDS011;37475;43.358;1.248;2023-11-21T03:09:27;3.70;;;0.75;;
51382;SDS011;37475;43.358;1.248;2023-11-21T03:11:53;3.15;;;0.70;;
51382;SDS011;37475;43.358;1.248;2023-11-21T03:14:19;3.22;;;1.10;;
51382;SDS011;37475;43.358;1.248;2023-11-21T03:16:45;5.38;;;0.90;;
51382;SDS011;37475;43.358;1.248;2023-11-21T03:19:11;7.85;;;1.40;;
51382;SDS011;37475;43.358;1.248;2023-11-21T03:21:37;3.88;;;0.70;;
51382;SDS011;37475;43.358;1.248;2023-11-21T03:24:03;4.88;;;1.00;;
51382;SDS011;37475;43.358;1.248;2023-11-21T03:26:29;5.63;;;1.05;;
51382;SDS011;37475;43.358;1.248;2023-11-21T03:28:55;6.90;;;0.85;;
51382;SDS011;37475;43.358;1.248;2023-11-21T03:31:21;12.15;;;0.93;;
51382;SDS011;37475;43.358;1.248;2023-11-21T03:33:46;12.43;;;1.00;;
51382;SDS011;37475;43.358;1.248;2023-11-21T03:36:12;4.97;;;0.85;;
51382;SDS011;37475;43.358;1.248;2023-11-21T03:38:40;6.88;;;1.00;;
51382;SDS011;37475;43.358;1.248;2023-11-21T03:41:06;2.47;;;0.73;;
51382;SDS011;37475;43.358;1.248;2023-11-21T03:43:35;5.43;;;0.82;;
51382;SDS011;37475;43.358;1.248;2023-11-21T03:46:02;2.90;;;0.75;;
51382;SDS011;37475;43.358;1.248;2023-11-21T03:48:28;4.30;;;1.08;;
51382;SDS011;37475;43.358;1.248;2023-11-21T03:50:54;2.25;;;0.65;;
51382;SDS011;37475;43.358;1.248;2023-11-21T03:53:20;7.20;;;1.33;;
51382;SDS011;37475;43.358;1.248;2023-11-21T03:55:45;5.18;;;1.38;;
51382;SDS011;37475;43.358;1.248;2023-11-21T03:58:11;6.95;;;1.00;;
51382;SDS011;37475;43.358;1.248;2023-11-21T04:00:37;4.30;;;0.80;;
51382;SDS011;37475;43.358;1.248;2023-11-21T04:03:03;9.88;;;1.02;;
51382;SDS011;37475;43.358;1.248;2023-11-21T04:05:30;6.03;;;0.90;;
51382;SDS011;37475;43.358;1.248;2023-11-21T04:07:56;5.93;;;1.00;;
51382;SDS011;37475;43.358;1.248;2023-11-21T04:10:22;7.05;;;1.02;;
51382;SDS011;37475;43.358;1.248;2023-11-21T04:12:47;2.17;;;0.68;;
51382;SDS011;37475;43.358;1.248;2023-11-21T04:15:13;6.55;;;1.05;;
51382;SDS011;37475;43.358;1.248;2023-11-21T04:17:39;7.40;;;1.20;;
51382;SDS011;37475;43.358;1.248;2023-11-21T04:20:07;4.53;;;0.80;;
51382;SDS011;37475;43.358;1.248;2023-11-21T04:22:38;4.63;;;1.00;;
51382;SDS011;37475;43.358;1.248;2023-11-21T04:25:09;7.55;;;1.05;;
51382;SDS011;37475;43.358;1.248;2023-11-21T04:27:39;3.67;;;0.82;;
51382;SDS011;37475;43.358;1.248;2023-11-21T04:30:08;12.00;;;1.35;;
51382;SDS011;37475;43.358;1.248;2023-11-21T04:32:36;5.10;;;0.90;;
51382;SDS011;37475;43.358;1.248;2023-11-21T04:35:01;5.80;;;0.82;;
51382;SDS011;37475;43.358;1.248;2023-11-21T04:37:29;7.20;;;1.17;;
51382;SDS011;37475;43.358;1.248;2023-11-21T04:39:54;7.93;;;1.17;;
51382;SDS011;37475;43.358;1.248;2023-11-21T04:42:20;7.28;;;0.73;;
51382;SDS011;37475;43.358;1.248;2023-11-21T04:44:46;4.57;;;0.80;;
51382;SDS011;37475;43.358;1.248;2023-11-21T04:47:13;6.40;;;0.80;;
51382;SDS011;37475;43.358;1.248;2023-11-21T04:49:42;6.43;;;1.25;;
51382;SDS011;37475;43.358;1.248;2023-11-21T04:52:08;4.60;;;0.90;;
51382;SDS011;37475;43.358;1.248;2023-11-21T04:54:35;3.28;;;0.80;;
51382;SDS011;37475;43.358;1.248;2023-11-21T04:57:01;6.57;;;0.80;;
51382;SDS011;37475;43.358;1.248;2023-11-21T04:59:27;4.60;;;0.63;;
51382;SDS011;37475;43.358;1.248;2023-11-21T05:01:53;3.85;;;0.60;;
51382;SDS011;37475;43.358;1.248;2023-11-21T05:04:19;5.00;;;0.88;;
51382;SDS011;37475;43.358;1.248;2023-11-21T05:06:47;5.50;;;0.90;;
51382;SDS011;37475;43.358;1.248;2023-11-21T05:09:13;3.78;;;0.95;;
51382;SDS011;37475;43.358;1.248;2023-11-21T05:11:40;3.47;;;0.70;;
51382;SDS011;37475;43.358;1.248;2023-11-21T05:14:06;3.10;;;0.60;;
51382;SDS011;37475;43.358;1.248;2023-11-21T05:16:33;5.82;;;0.82;;
51382;SDS011;37475;43.358;1.248;2023-11-21T05:19:00;3.20;;;0.80;;
51382;SDS011;37475;43.358;1.248;2023-11-21T05:21:29;3.65;;;0.70;;
51382;SDS011;37475;43.358;1.248;2023-11-21T05:23:58;6.68;;;0.93;;
51382;SDS011;37475;43.358;1.248;2023-11-21T05:26:24;3.10;;;1.00;;
51382;SDS011;37475;43.358;1.248;2023-11-21T05:28:50;5.38;;;1.30;;
51382;SDS011;37475;43.358;1.248;2023-11-21T05:31:15;4.80;;;1.00;;
51382;SDS011;37475;43.358;1.248;2023-11-21T05:33:41;5.10;;;1.23;;
51382;SDS011;37475;43.358;1.248;2023-11-21T05:36:07;7.10;;;1.88;;
51382;SDS011;37475;43.358;1.248;2023-11-21T05:38:35;5.43;;;1.40;;
51382;SDS011;37475;43.358;1.248;2023-11-21T05:41:02;4.10;;;1.10;;
51382;SDS011;37475;43.358;1.248;2023-11-21T05:43:28;2.95;;;0.90;;
51382;SDS011;37475;43.358;1.248;2023-11-21T05:45:55;4.43;;;1.00;;
51382;SDS011;37475;43.358;1.248;2023-11-21T05:48:21;6.38;;;1.38;;
51382;SDS011;37475;43.358;1.248;2023-11-21T05:50:48;5.45;;;0.90;;
51382;SDS011;37475;43.358;1.248;2023-11-21T05:53:14;3.80;;;0.70;;
51382;SDS011;37475;43.358;1.248;2023-11-21T05:55:41;5.10;;;0.85;;
51382;SDS011;37475;43.358;1.248;2023-11-21T05:58:07;5.00;;;0.70;;
51382;SDS011;37475;43.358;1.248;2023-11-21T06:00:33;6.88;;;1.20;;
51382;SDS011;37475;43.358;1.248;2023-11-21T06:02:59;9.48;;;1.05;;
51382;SDS011;37475;43.358;1.248;2023-11-21T06:05:25;3.92;;;0.63;;
51382;SDS011;37475;43.358;1.248;2023-11-21T06:07:55;2.30;;;0.50;;
51382;SDS011;37475;43.358;1.248;2023-11-21T06:10:23;1.75;;;0.50;;
51382;SDS011;37475;43.358;1.248;2023-11-21T06:12:50;5.00;;;0.80;;
51382;SDS011;37475;43.358;1.248;2023-11-21T06:15:16;7.15;;;0.80;;
51382;SDS011;37475;43.358;1.248;2023-11-21T06:17:44;2.97;;;0.80;;
51382;SDS011;37475;43.358;1.248;2023-11-21T06:20:14;3.13;;;0.70;;
51382;SDS011;37475;43.358;1.248;2023-11-21T06:22:43;6.15;;;1.20;;
51382;SDS011;37475;43.358;1.248;2023-11-21T06:25:12;2.00;;;0.60;;
51382;SDS011;37475;43.358;1.248;2023-11-21T06:27:39;2.45;;;0.73;;
51382;SDS011;37475;43.358;1.248;2023-11-21T06:30:08;4.57;;;0.57;;
51382;SDS011;37475;43.358;1.248;2023-11-21T06:32:35;6.70;;;1.63;;
51382;SDS011;37475;43.358;1.248;2023-11-21T06:35:02;3.33;;;0.80;;
51382;SDS011;37475;43.358;1.248;2023-11-21T06:37:29;3.47;;;0.90;;
51382;SDS011;37475;43.358;1.248;2023-11-21T06:39:55;5.28;;;1.20;;
51382;SDS011;37475;43.358;1.248;2023-11-21T06:42:23;7.60;;;1.20;;
51382;SDS011;37475;43.358;1.248;2023-11-21T06:44:49;4.35;;;1.08;;
51382;SDS011;37475;43.358;1.248;2023-11-21T06:47:21;7.32;;;1.20;;
51382;SDS011;37475;43.358;1.248;2023-11-21T06:49:51;6.97;;;1.55;;
51382;SDS011;37475;43.358;1.248;2023-11-21T06:52:17;5.53;;;0.95;;
51382;SDS011;37475;43.358;1.248;2023-11-21T06:54:44;5.95;;;1.05;;
51382;SDS011;37475;43.358;1.248;2023-11-21T06:57:11;9.50;;;1.40;;
51382;SDS011;37475;43.358;1.248;2023-11-21T06:59:36;6.20;;;1.55;;
51382;SDS011;37475;43.358;1.248;2023-11-21T07:02:03;4.15;;;0.90;;
51382;SDS011;37475;43.358;1.248;2023-11-21T07:04:31;6.72;;;0.88;;
51382;SDS011;37475;43.358;1.248;2023-11-21T07:07:03;4.00;;;0.70;;
51382;SDS011;37475;43.358;1.248;2023-11-21T07:09:32;3.25;;;0.80;;
51382;SDS011;37475;43.358;1.248;2023-11-21T07:11:58;6.55;;;1.00;;
51382;SDS011;37475;43.358;1.248;2023-11-21T07:14:23;5.28;;;1.08;;
51382;SDS011;37475;43.358;1.248;2023-11-21T07:16:49;3.08;;;0.70;;
51382;SDS011;37475;43.358;1.248;2023-11-21T07:19:16;2.13;;;0.60;;
51382;SDS011;37475;43.358;1.248;2023-11-21T07:21:41;5.65;;;0.70;;
51382;SDS011;37475;43.358;1.248;2023-11-21T07:24:07;6.47;;;0.93;;
51382;SDS011;37475;43.358;1.248;2023-11-21T07:26:34;3.90;;;0.60;;
51382;SDS011;37475;43.358;1.248;2023-11-21T07:29:00;9.43;;;1.15;;
51382;SDS011;37475;43.358;1.248;2023-11-21T07:31:27;4.45;;;0.90;;
51382;SDS011;37475;43.358;1.248;2023-11-21T07:33:54;5.72;;;1.00;;
51382;SDS011;37475;43.358;1.248;2023-11-21T07:36:22;4.03;;;0.75;;
51382;SDS011;37475;43.358;1.248;2023-11-21T07:38:49;2.97;;;0.73;;
51382;SDS011;37475;43.358;1.248;2023-11-21T07:41:15;4.43;;;0.98;;
51382;SDS011;37475;43.358;1.248;2023-11-21T07:43:43;3.13;;;0.88;;
51382;SDS011;37475;43.358;1.248;2023-11-21T07:46:10;2.22;;;0.70;;
51382;SDS011;37475;43.358;1.248;2023-11-21T07:48:37;2.13;;;0.80;;
51382;SDS011;37475;43.358;1.248;2023-11-21T07:51:07;2.00;;;0.63;;
51382;SDS011;37475;43.358;1.248;2023-11-21T07:53:35;2.08;;;0.65;;
51382;SDS011;37475;43.358;1.248;2023-11-21T07:56:05;3.20;;;0.77;;
51382;SDS011;37475;43.358;1.248;2023-11-21T07:58:33;2.22;;;0.65;;
51382;SDS011;37475;43.358;1.248;2023-11-21T08:01:00;3.25;;;0.90;;
51382;SDS011;37475;43.358;1.248;2023-11-21T08:03:27;2.88;;;0.60;;
51382;SDS011;37475;43.358;1.248;2023-11-21T08:05:55;3.28;;;0.65;;
51382;SDS011;37475;43.358;1.248;2023-11-21T08:08:22;2.88;;;0.85;;
51382;SDS011;37475;43.358;1.248;2023-11-21T08:10:48;2.10;;;0.63;;
51382;SDS011;37475;43.358;1.248;2023-11-21T08:13:21;3.72;;;1.02;;
51382;SDS011;37475;43.358;1.248;2023-11-21T08:15:48;6.00;;;1.27;;
51382;SDS011;37475;43.358;1.248;2023-11-21T08:18:14;3.63;;;0.70;;
51382;SDS011;37475;43.358;1.248;2023-11-21T08:20:41;5.68;;;0.98;;
51382;SDS011;37475;43.358;1.248;2023-11-21T08:23:07;4.30;;;1.10;;
51382;SDS011;37475;43.358;1.248;2023-11-21T08:25:32;5.38;;;0.82;;
51382;SDS011;37475;43.358;1.248;2023-11-21T08:27:59;2.45;;;0.82;;
51382;SDS011;37475;43.358;1.248;2023-11-21T08:30:26;2.80;;;0.90;;
51382;SDS011;37475;43.358;1.248;2023-11-21T08:32:55;2.45;;;0.75;;
51382;SDS011;37475;43.358;1.248;2023-11-21T08:35:23;1.50;;;0.60;;
51382;SDS011;37475;43.358;1.248;2023-11-21T08:37:52;6.00;;;0.90;;
51382;SDS011;37475;43.358;1.248;2023-11-21T08:40:18;3.33;;;0.80;;
51382;SDS011;37475;43.358;1.248;2023-11-21T08:42:46;6.30;;;0.90;;
51382;SDS011;37475;43.358;1.248;2023-11-21T08:45:13;3.25;;;0.70;;
51382;SDS011;37475;43.358;1.248;2023-11-21T08:47:42;4.15;;;1.00;;
51382;SDS011;37475;43.358;1.248;2023-11-21T08:50:09;4.30;;;0.73;;
51382;SDS011;37475;43.358;1.248;2023-11-21T08:52:37;5.80;;;1.00;;
51382;SDS011;37475;43.358;1.248;2023-11-21T08:55:04;3.63;;;1.17;;
51382;SDS011;37475;43.358;1.248;2023-11-21T08:57:36;4.78;;;0.70;;
51382;SDS011;37475;43.358;1.248;2023-11-21T09:00:03;2.05;;;0.85;;
51382;SDS011;37475;43.358;1.248;2023-11-21T09:02:40;2.60;;;0.80;;
51382;SDS011;37475;43.358;1.248;2023-11-21T09:05:07;4.90;;;1.13;;
51382;SDS011;37475;43.358;1.248;2023-11-21T09:07:38;1.30;;;0.60;;
51382;SDS011;37475;43.358;1.248;2023-11-21T09:10:06;2.53;;;0.70;;
51382;SDS011;37475;43.358;1.248;2023-11-21T09:12:34;1.63;;;0.60;;
51382;SDS011;37475;43.358;1.248;2023-11-21T09:15:07;3.72;;;0.65;;
51382;SDS011;37475;43.358;1.248;2023-11-21T09:17:34;1.65;;;0.90;;
51382;SDS011;37475;43.358;1.248;2023-11-21T09:20:00;2.50;;;0.57;;
51382;SDS011;37475;43.358;1.248;2023-11-21T09:22:30;1.98;;;0.70;;
51382;SDS011;37475;43.358;1.248;2023-11-21T09:24:56;1.30;;;0.65;;
51382;SDS011;37475;43.358;1.248;2023-11-21T09:27:23;3.10;;;0.80;;
51382;SDS011;37475;43.358;1.248;2023-11-21T09:29:48;1.17;;;0.60;;
51382;SDS011;37475;43.358;1.248;2023-11-21T09:32:14;1.88;;;0.80;;
51382;SDS011;37475;43.358;1.248;2023-11-21T09:34:41;2.22;;;0.73;;
51382;SDS011;37475;43.358;1.248;2023-11-21T09:37:07;2.30;;;0.77;;
51382;SDS011;37475;43.358;1.248;2023-11-21T09:39:33;2.50;;;0.80;;
51382;SDS011;37475;43.358;1.248;2023-11-21T09:47:41;1.17;;;0.68;;
51382;SDS011;37475;43.358;1.248;2023-11-21T09:50:08;2.15;;;0.80;;
51382;SDS011;37475;43.358;1.248;2023-11-21T09:52:49;2.13;;;0.70;;
51382;SDS011;37475;43.358;1.248;2023-11-21T09:55:45;1.45;;;0.60;;
51382;SDS011;37475;43.358;1.248;2023-11-21T09:58:14;2.38;;;0.80;;
51382;SDS011;37475;43.358;1.248;2023-11-21T10:00:41;4.20;;;0.80;;
51382;SDS011;37475;43.358;1.248;2023-11-21T10:03:11;3.53;;;0.90;;
51382;SDS011;37475;43.358;1.248;2023-11-21T10:05:38;2.42;;;0.90;;
51382;SDS011;37475;43.358;1.248;2023-11-21T10:08:10;2.45;;;0.75;;
51382;SDS011;37475;43.358;1.248;2023-11-21T10:10:37;3.05;;;0.90;;
51382;SDS011;37475;43.358;1.248;2023-11-21T10:13:10;3.10;;;0.98;;
51382;SDS011;37475;43.358;1.248;2023-11-21T10:15:38;3.17;;;0.90;;
51382;SDS011;37475;43.358;1.248;2023-11-21T10:18:09;3.78;;;0.80;;
51382;SDS011;37475;43.358;1.248;2023-11-21T10:20:35;3.90;;;1.30;;
51382;SDS011;37475;43.358;1.248;2023-11-21T10:23:03;5.07;;;1.08;;
51382;SDS011;37475;43.358;1.248;2023-11-21T10:25:29;2.90;;;1.10;;
51382;SDS011;37475;43.358;1.248;2023-11-21T10:27:59;4.57;;;1.17;;
51382;SDS011;37475;43.358;1.248;2023-11-21T10:30:33;4.93;;;0.93;;
51382;SDS011;37475;43.358;1.248;2023-11-21T10:33:03;3.53;;;0.90;;
51382;SDS011;37475;43.358;1.248;2023-11-21T10:35:46;4.22;;;1.10;;
51382;SDS011;37475;43.358;1.248;2023-11-21T10:38:16;3.10;;;1.00;;
51382;SDS011;37475;43.358;1.248;2023-11-21T10:40:43;3.25;;;1.20;;
51382;SDS011;37475;43.358;1.248;2023-11-21T10:43:11;3.08;;;1.00;;
51382;SDS011;37475;43.358;1.248;2023-11-21T10:45:40;3.00;;;1.20;;
51382;SDS011;37475;43.358;1.248;2023-11-21T10:48:08;2.97;;;1.00;;
51382;SDS011;37475;43.358;1.248;2023-11-21T10:50:41;4.82;;;1.40;;
51382;SDS011;37475;43.358;1.248;2023-11-21T10:53:09;4.03;;;1.45;;
51382;SDS011;37475;43.358;1.248;2023-11-21T10:55:36;4.15;;;1.55;;
51382;SDS011;37475;43.358;1.248;2023-11-21T10:58:03;3.60;;;1.40;;
51382;SDS011;37475;43.358;1.248;2023-11-21T11:00:30;4.45;;;1.85;;
51382;SDS011;37475;43.358;1.248;2023-11-21T11:02:57;4.50;;;1.90;;
51382;SDS011;37475;43.358;1.248;2023-11-21T11:05:28;5.20;;;2.15;;
51382;SDS011;37475;43.358;1.248;2023-11-21T11:08:07;7.80;;;2.63;;
51382;SDS011;37475;43.358;1.248;2023-11-21T11:10:36;6.32;;;2.47;;
51382;SDS011;37475;43.358;1.248;2023-11-21T11:13:03;5.40;;;2.25;;
51382;SDS011;37475;43.358;1.248;2023-11-21T11:15:32;6.13;;;2.30;;
51382;SDS011;37475;43.358;1.248;2023-11-21T11:17:58;6.05;;;2.42;;
51382;SDS011;37475;43.358;1.248;2023-11-21T11:20:34;5.95;;;2.17;;
51382;SDS011;37475;43.358;1.248;2023-11-21T11:31:48;5.07;;;2.60;;
51382;SDS011;37475;43.358;1.248;2023-11-21T11:34:23;6.82;;;2.63;;
51382;SDS011;37475;43.358;1.248;2023-11-21T11:37:00;6.00;;;2.20;;
51382;SDS011;37475;43.358;1.248;2023-11-21T11:39:37;6.25;;;2.33;;
51382;SDS011;37475;43.358;1.248;2023-11-21T11:42:11;5.10;;;2.20;;
51382;SDS011;37475;43.358;1.248;2023-11-21T11:47:19;4.47;;;2.05;;
51382;SDS011;37475;43.358;1.248;2023-11-21T11:52:42;4.05;;;1.80;;
51382;SDS011;37475;43.358;1.248;2023-11-21T11:55:12;5.07;;;2.13;;
51382;SDS011;37475;43.358;1.248;2023-11-21T11:57:43;4.65;;;2.08;;
51382;SDS011;37475;43.358;1.248;2023-11-21T12:00:20;4.30;;;1.83;;
51382;SDS011;37475;43.358;1.248;2023-11-21T12:02:52;5.85;;;1.80;;
51382;SDS011;37475;43.358;1.248;2023-11-21T12:05:22;3.97;;;2.13;;
51382;SDS011;37475;43.358;1.248;2023-11-21T12:07:55;6.00;;;1.90;;
51382;SDS011;37475;43.358;1.248;2023-11-21T12:10:23;3.95;;;2.00;;
51382;SDS011;37475;43.358;1.248;2023-11-21T12:15:32;4.25;;;1.92;;
51382;SDS011;37475;43.358;1.248;2023-11-21T12:18:00;4.35;;;1.58;;
51382;SDS011;37475;43.358;1.248;2023-11-21T12:20:26;3.55;;;1.60;;
51382;SDS011;37475;43.358;1.248;2023-11-21T12:22:57;4.75;;;1.70;;
51382;SDS011;37475;43.358;1.248;2023-11-21T12:25:25;5.63;;;1.83;;
51382;SDS011;37475;43.358;1.248;2023-11-21T12:27:54;3.53;;;1.58;;
51382;SDS011;37475;43.358;1.248;2023-11-21T12:30:22;3.78;;;1.50;;
51382;SDS011;37475;43.358;1.248;2023-11-21T12:32:50;4.55;;;2.15;;
51382;SDS011;37475;43.358;1.248;2023-11-21T12:35:19;2.15;;;1.10;;
51382;SDS011;37475;43.358;1.248;2023-11-21T12:37:47;3.45;;;1.30;;
51382;SDS011;37475;43.358;1.248;2023-11-21T12:40:14;2.70;;;1.30;;
51382;SDS011;37475;43.358;1.248;2023-11-21T12:42:43;2.58;;;1.10;;
51382;SDS011;37475;43.358;1.248;2023-11-21T12:45:23;4.25;;;1.60;;
51382;SDS011;37475;43.358;1.248;2023-11-21T12:47:51;3.10;;;1.65;;
51382;SDS011;37475;43.358;1.248;2023-11-21T12:50:28;3.05;;;1.88;;
51382;SDS011;37475;43.358;1.248;2023-11-21T12:53:02;3.20;;;1.65;;
51382;SDS011;37475;43.358;1.248;2023-11-21T12:55:30;4.00;;;1.40;;
51382;SDS011;37475;43.358;1.248;2023-11-21T12:57:58;3.15;;;1.27;;
51382;SDS011;37475;43.358;1.248;2023-11-21T13:00:44;2.50;;;1.38;;
51382;SDS011;37475;43.358;1.248;2023-11-21T13:03:12;4.28;;;1.52;;
51382;SDS011;37475;43.358;1.248;2023-11-21T13:05:43;3.55;;;1.70;;
51382;SDS011;37475;43.358;1.248;2023-11-21T13:08:12;5.28;;;1.65;;
51382;SDS011;37475;43.358;1.248;2023-11-21T13:10:39;3.58;;;1.65;;
51382;SDS011;37475;43.358;1.248;2023-11-21T13:13:10;3.38;;;1.20;;
51382;SDS011;37475;43.358;1.248;2023-11-21T13:15:53;3.95;;;1.58;;
51382;SDS011;37475;43.358;1.248;2023-11-21T13:18:26;2.80;;;1.30;;
51382;SDS011;37475;43.358;1.248;2023-11-21T13:20:54;3.05;;;1.27;;
51382;SDS011;37475;43.358;1.248;2023-11-21T13:23:22;2.35;;;1.10;;
51382;SDS011;37475;43.358;1.248;2023-11-21T13:25:48;2.65;;;1.35;;
51382;SDS011;37475;43.358;1.248;2023-11-21T13:28:15;2.70;;;1.23;;
51382;SDS011;37475;43.358;1.248;2023-11-21T13:30:43;3.90;;;1.10;;
51382;SDS011;37475;43.358;1.248;2023-11-21T13:33:09;2.63;;;1.25;;
51382;SDS011;37475;43.358;1.248;2023-11-21T13:35:42;2.50;;;1.10;;
51382;SDS011;37475;43.358;1.248;2023-11-21T13:38:16;3.25;;;1.52;;
51382;SDS011;37475;43.358;1.248;2023-11-21T13:40:50;3.45;;;1.23;;
51382;SDS011;37475;43.358;1.248;2023-11-21T13:43:19;3.65;;;1.42;;
51382;SDS011;37475;43.358;1.248;2023-11-21T13:45:49;4.38;;;1.35;;
51382;SDS011;37475;43.358;1.248;2023-11-21T13:48:23;4.47;;;1.80;;
51382;SDS011;37475;43.358;1.248;2023-11-21T13:51:10;4.70;;;1.67;;
51382;SDS011;37475;43.358;1.248;2023-11-21T13:53:42;5.57;;;2.30;;
51382;SDS011;37475;43.358;1.248;2023-11-21T13:56:14;4.25;;;1.98;;
51382;SDS011;37475;43.358;1.248;2023-11-21T13:58:44;4.82;;;2.05;;
51382;SDS011;37475;43.358;1.248;2023-11-21T14:01:20;5.90;;;2.50;;
51382;SDS011;37475;43.358;1.248;2023-11-21T14:04:00;4.47;;;1.98;;
51382;SDS011;37475;43.358;1.248;2023-11-21T14:06:48;4.63;;;2.22;;
51382;SDS011;37475;43.358;1.248;2023-11-21T14:09:19;5.63;;;2.33;;
51382;SDS011;37475;43.358;1.248;2023-11-21T14:11:51;4.22;;;1.85;;
51382;SDS011;37475;43.358;1.248;2023-11-21T14:14:19;4.10;;;1.90;;
51382;SDS011;37475;43.358;1.248;2023-11-21T14:16:47;4.22;;;1.90;;
51382;SDS011;37475;43.358;1.248;2023-11-21T14:19:13;4.32;;;1.90;;
51382;SDS011;37475;43.358;1.248;2023-11-21T14:21:45;4.78;;;1.90;;
51382;SDS011;37475;43.358;1.248;2023-11-21T14:24:11;4.55;;;1.77;;
51382;SDS011;37475;43.358;1.248;2023-11-21T14:26:41;6.82;;;1.90;;
51382;SDS011;37475;43.358;1.248;2023-11-21T14:29:08;3.53;;;1.42;;
51382;SDS011;37475;43.358;1.248;2023-11-21T14:31:37;3.75;;;1.38;;
51382;SDS011;37475;43.358;1.248;2023-11-21T14:34:03;4.60;;;1.85;;
51382;SDS011;37475;43.358;1.248;2023-11-21T14:36:31;3.10;;;1.40;;
51382;SDS011;37475;43.358;1.248;2023-11-21T14:38:58;4.47;;;1.60;;
51382;SDS011;37475;43.358;1.248;2023-11-21T14:41:24;3.40;;;1.50;;
51382;SDS011;37475;43.358;1.248;2023-11-21T14:43:54;3.47;;;1.33;;
51382;SDS011;37475;43.358;1.248;2023-11-21T14:46:22;3.67;;;1.50;;
51382;SDS011;37475;43.358;1.248;2023-11-21T14:48:48;4.05;;;1.70;;
51382;SDS011;37475;43.358;1.248;2023-11-21T14:51:28;2.72;;;1.38;;
51382;SDS011;37475;43.358;1.248;2023-11-21T14:54:01;3.95;;;1.42;;
51382;SDS011;37475;43.358;1.248;2023-11-21T14:56:33;3.45;;;1.60;;
51382;SDS011;37475;43.358;1.248;2023-11-21T14:59:00;6.40;;;1.83;;
51382;SDS011;37475;43.358;1.248;2023-11-21T15:01:41;3.70;;;1.67;;
51382;SDS011;37475;43.358;1.248;2023-11-21T15:04:22;4.45;;;1.95;;
51382;SDS011;37475;43.358;1.248;2023-11-21T15:07:03;4.03;;;1.75;;
51382;SDS011;37475;43.358;1.248;2023-11-21T15:09:30;4.03;;;1.77;;
51382;SDS011;37475;43.358;1.248;2023-11-21T15:11:57;4.22;;;1.77;;
51382;SDS011;37475;43.358;1.248;2023-11-21T15:14:34;3.60;;;1.50;;
51382;SDS011;37475;43.358;1.248;2023-11-21T15:17:01;5.68;;;1.95;;
51382;SDS011;37475;43.358;1.248;2023-11-21T15:19:28;4.60;;;1.70;;